sensor_id;sensor_type;location;lat;lon;timestamp;P1;durP1;ratioP1;P2;durP2;ratioP2
62903;SDS011;49000;50.698;13.322;2022-11-22T00:00:57;4.30;;;2.93;;
62903;SDS011;49000;50.698;13.322;2022-11-22T00:03:23;6.13;;;2.80;;
62903;SDS011;49000;50.698;13.322;2022-11-22T00:05:48;5.43;;;3.23;;
62903;SDS011;49000;50.698;13.322;2022-11-22T00:08:14;6.53;;;3.00;;
62903;SDS011;49000;50.698;13.322;2022-11-22T00:10:39;7.07;;;3.07;;
62903;SDS011;49000;50.698;13.322;2022-11-22T00:13:05;6.07;;;2.90;;
62903;SDS011;49000;50.698;13.322;2022-11-22T00:15:30;5.27;;;3.07;;
62903;SDS011;49000;50.698;13.322;2022-11-22T00:17:56;5.27;;;2.63;;
62903;SDS011;49000;50.698;13.322;2022-11-22T00:20:21;5.40;;;3.07;;
62903;SDS011;49000;50.698;13.322;2022-11-22T00:22:47;5.87;;;3.03;;
62903;SDS011;49000;50.698;13.322;2022-11-22T00:25:13;5.47;;;3.30;;
62903;SDS011;49000;50.698;13.322;2022-11-22T00:27:39;6.50;;;3.40;;
62903;SDS011;49000;50.698;13.322;2022-11-22T00:30:05;8.03;;;3.37;;
62903;SDS011;49000;50.698;13.322;2022-11-22T00:32:31;6.90;;;3.90;;
62903;SDS011;49000;50.698;13.322;2022-11-22T00:34:57;8.13;;;3.40;;
62903;SDS011;49000;50.698;13.322;2022-11-22T00:37:22;6.00;;;3.57;;
62903;SDS011;49000;50.698;13.322;2022-11-22T00:39:48;7.37;;;3.63;;
62903;SDS011;49000;50.698;13.322;2022-11-22T00:42:13;9.20;;;3.40;;
62903;SDS011;49000;50.698;13.322;2022-11-22T00:44:39;5.07;;;3.30;;
62903;SDS011;49000;50.698;13.322;2022-11-22T00:47:04;6.70;;;3.90;;
62903;SDS011;49000;50.698;13.322;2022-11-22T00:49:30;7.20;;;3.83;;
62903;SDS011;49000;50.698;13.322;2022-11-22T00:51:55;10.90;;;4.30;;
62903;SDS011;49000;50.698;13.322;2022-11-22T00:54:21;7.63;;;4.23;;
62903;SDS011;49000;50.698;13.322;2022-11-22T00:56:46;6.27;;;4.13;;
62903;SDS011;49000;50.698;13.322;2022-11-22T00:59:12;10.30;;;4.17;;
62903;SDS011;49000;50.698;13.322;2022-11-22T01:01:37;8.80;;;5.00;;
62903;SDS011;49000;50.698;13.322;2022-11-22T01:04:03;7.70;;;4.63;;
62903;SDS011;49000;50.698;13.322;2022-11-22T01:06:28;8.67;;;5.30;;
62903;SDS011;49000;50.698;13.322;2022-11-22T01:08:54;8.93;;;4.57;;
62903;SDS011;49000;50.698;13.322;2022-11-22T01:11:20;9.67;;;5.27;;
62903;SDS011;49000;50.698;13.322;2022-11-22T01:13:45;11.80;;;5.73;;
62903;SDS011;49000;50.698;13.322;2022-11-22T01:16:11;12.97;;;5.70;;
62903;SDS011;49000;50.698;13.322;2022-11-22T01:18:37;9.13;;;4.77;;
62903;SDS011;49000;50.698;13.322;2022-11-22T01:21:03;11.57;;;5.60;;
62903;SDS011;49000;50.698;13.322;2022-11-22T01:23:29;14.63;;;6.03;;
62903;SDS011;49000;50.698;13.322;2022-11-22T01:25:55;11.60;;;5.43;;
62903;SDS011;49000;50.698;13.322;2022-11-22T01:28:21;10.73;;;5.77;;
62903;SDS011;49000;50.698;13.322;2022-11-22T01:30:50;11.80;;;6.20;;
62903;SDS011;49000;50.698;13.322;2022-11-22T01:33:18;10.90;;;6.30;;
62903;SDS011;49000;50.698;13.322;2022-11-22T01:35:44;11.63;;;6.00;;
62903;SDS011;49000;50.698;13.322;2022-11-22T01:38:10;13.77;;;6.60;;
62903;SDS011;49000;50.698;13.322;2022-11-22T01:40:35;11.63;;;6.40;;
62903;SDS011;49000;50.698;13.322;2022-11-22T01:43:01;9.40;;;5.70;;
62903;SDS011;49000;50.698;13.322;2022-11-22T01:45:35;13.60;;;6.13;;
62903;SDS011;49000;50.698;13.322;2022-11-22T01:50:31;10.67;;;5.77;;
62903;SDS011;49000;50.698;13.322;2022-11-22T01:53:01;12.77;;;5.93;;
62903;SDS011;49000;50.698;13.322;2022-11-22T01:55:31;11.03;;;5.60;;
62903;SDS011;49000;50.698;13.322;2022-11-22T01:57:58;11.90;;;5.87;;
62903;SDS011;49000;50.698;13.322;2022-11-22T02:00:24;10.50;;;5.63;;
62903;SDS011;49000;50.698;13.322;2022-11-22T02:02:51;9.87;;;5.63;;
62903;SDS011;49000;50.698;13.322;2022-11-22T02:05:20;9.73;;;5.10;;
62903;SDS011;49000;50.698;13.322;2022-11-22T02:10:17;10.97;;;5.27;;
62903;SDS011;49000;50.698;13.322;2022-11-22T02:12:46;9.37;;;5.10;;
62903;SDS011;49000;50.698;13.322;2022-11-22T02:15:14;9.80;;;5.10;;
62903;SDS011;49000;50.698;13.322;2022-11-22T02:17:40;14.23;;;6.20;;
62903;SDS011;49000;50.698;13.322;2022-11-22T02:20:06;12.23;;;5.37;;
62903;SDS011;49000;50.698;13.322;2022-11-22T02:22:34;12.83;;;6.03;;
62903;SDS011;49000;50.698;13.322;2022-11-22T02:25:14;11.13;;;5.53;;
62903;SDS011;49000;50.698;13.322;2022-11-22T02:27:59;9.40;;;5.17;;
62903;SDS011;49000;50.698;13.322;2022-11-22T02:30:25;12.47;;;5.63;;
62903;SDS011;49000;50.698;13.322;2022-11-22T02:32:51;13.37;;;6.73;;
62903;SDS011;49000;50.698;13.322;2022-11-22T02:37:47;11.43;;;6.37;;
62903;SDS011;49000;50.698;13.322;2022-11-22T02:40:16;12.13;;;5.97;;
62903;SDS011;49000;50.698;13.322;2022-11-22T02:42:44;14.80;;;8.10;;
62903;SDS011;49000;50.698;13.322;2022-11-22T02:45:15;13.53;;;6.17;;
62903;SDS011;49000;50.698;13.322;2022-11-22T02:47:41;11.80;;;6.17;;
62903;SDS011;49000;50.698;13.322;2022-11-22T02:50:06;16.77;;;8.10;;
62903;SDS011;49000;50.698;13.322;2022-11-22T02:52:32;16.20;;;8.00;;
62903;SDS011;49000;50.698;13.322;2022-11-22T02:54:58;17.93;;;7.47;;
62903;SDS011;49000;50.698;13.322;2022-11-22T02:57:23;15.60;;;7.17;;
62903;SDS011;49000;50.698;13.322;2022-11-22T02:59:49;17.53;;;8.60;;
62903;SDS011;49000;50.698;13.322;2022-11-22T03:02:14;15.63;;;8.40;;
62903;SDS011;49000;50.698;13.322;2022-11-22T03:04:40;18.63;;;7.93;;
62903;SDS011;49000;50.698;13.322;2022-11-22T03:07:05;14.73;;;7.60;;
62903;SDS011;49000;50.698;13.322;2022-11-22T03:09:31;15.03;;;7.93;;
62903;SDS011;49000;50.698;13.322;2022-11-22T03:11:56;15.43;;;8.33;;
62903;SDS011;49000;50.698;13.322;2022-11-22T03:14:22;16.07;;;7.57;;
62903;SDS011;49000;50.698;13.322;2022-11-22T03:16:48;20.67;;;8.23;;
62903;SDS011;49000;50.698;13.322;2022-11-22T03:19:14;16.57;;;8.10;;
62903;SDS011;49000;50.698;13.322;2022-11-22T03:21:40;12.87;;;7.73;;
62903;SDS011;49000;50.698;13.322;2022-11-22T03:24:07;13.10;;;7.13;;
62903;SDS011;49000;50.698;13.322;2022-11-22T03:26:33;14.77;;;6.97;;
62903;SDS011;49000;50.698;13.322;2022-11-22T03:28:59;14.43;;;6.97;;
62903;SDS011;49000;50.698;13.322;2022-11-22T03:31:25;14.13;;;7.60;;
62903;SDS011;49000;50.698;13.322;2022-11-22T03:33:51;10.50;;;6.20;;
62903;SDS011;49000;50.698;13.322;2022-11-22T03:36:16;13.80;;;6.03;;
62903;SDS011;49000;50.698;13.322;2022-11-22T03:38:42;13.43;;;6.70;;
62903;SDS011;49000;50.698;13.322;2022-11-22T03:41:07;10.13;;;5.63;;
62903;SDS011;49000;50.698;13.322;2022-11-22T03:43:33;12.93;;;5.93;;
62903;SDS011;49000;50.698;13.322;2022-11-22T03:45:59;10.73;;;6.13;;
62903;SDS011;49000;50.698;13.322;2022-11-22T03:48:24;11.30;;;6.07;;
62903;SDS011;49000;50.698;13.322;2022-11-22T03:50:50;10.03;;;5.63;;
62903;SDS011;49000;50.698;13.322;2022-11-22T03:53:15;13.23;;;5.97;;
62903;SDS011;49000;50.698;13.322;2022-11-22T03:55:41;11.83;;;5.57;;
62903;SDS011;49000;50.698;13.322;2022-11-22T03:58:06;7.80;;;5.40;;
62903;SDS011;49000;50.698;13.322;2022-11-22T04:00:32;13.03;;;5.67;;
62903;SDS011;49000;50.698;13.322;2022-11-22T04:02:59;9.77;;;5.70;;
62903;SDS011;49000;50.698;13.322;2022-11-22T04:05:24;10.73;;;5.73;;
62903;SDS011;49000;50.698;13.322;2022-11-22T04:07:50;11.40;;;5.97;;
62903;SDS011;49000;50.698;13.322;2022-11-22T04:10:24;10.30;;;5.57;;
62903;SDS011;49000;50.698;13.322;2022-11-22T04:12:50;10.27;;;5.63;;
62903;SDS011;49000;50.698;13.322;2022-11-22T04:15:20;10.57;;;5.57;;
62903;SDS011;49000;50.698;13.322;2022-11-22T04:17:45;11.33;;;6.20;;
62903;SDS011;49000;50.698;13.322;2022-11-22T04:20:16;12.20;;;5.73;;
62903;SDS011;49000;50.698;13.322;2022-11-22T04:23:05;11.43;;;5.90;;
62903;SDS011;49000;50.698;13.322;2022-11-22T04:25:36;11.40;;;5.63;;
62903;SDS011;49000;50.698;13.322;2022-11-22T04:28:04;9.37;;;5.67;;
62903;SDS011;49000;50.698;13.322;2022-11-22T04:30:30;11.43;;;5.10;;
62903;SDS011;49000;50.698;13.322;2022-11-22T04:33:15;11.67;;;5.50;;
62903;SDS011;49000;50.698;13.322;2022-11-22T04:35:41;11.10;;;5.30;;
62903;SDS011;49000;50.698;13.322;2022-11-22T04:38:08;10.50;;;5.27;;
62903;SDS011;49000;50.698;13.322;2022-11-22T04:40:33;9.67;;;5.20;;
62903;SDS011;49000;50.698;13.322;2022-11-22T04:42:59;11.73;;;5.53;;
62903;SDS011;49000;50.698;13.322;2022-11-22T04:45:44;9.77;;;5.03;;
62903;SDS011;49000;50.698;13.322;2022-11-22T04:48:10;9.20;;;4.97;;
62903;SDS011;49000;50.698;13.322;2022-11-22T04:50:36;11.07;;;5.03;;
62903;SDS011;49000;50.698;13.322;2022-11-22T04:53:41;9.30;;;4.63;;
62903;SDS011;49000;50.698;13.322;2022-11-22T04:56:08;9.83;;;5.70;;
62903;SDS011;49000;50.698;13.322;2022-11-22T04:58:33;11.47;;;5.03;;
62903;SDS011;49000;50.698;13.322;2022-11-22T05:00:59;10.67;;;5.70;;
62903;SDS011;49000;50.698;13.322;2022-11-22T05:03:24;11.83;;;6.33;;
62903;SDS011;49000;50.698;13.322;2022-11-22T05:05:50;11.77;;;6.17;;
62903;SDS011;49000;50.698;13.322;2022-11-22T05:08:16;12.33;;;6.23;;
62903;SDS011;49000;50.698;13.322;2022-11-22T05:10:41;13.17;;;6.53;;
62903;SDS011;49000;50.698;13.322;2022-11-22T05:13:23;15.13;;;7.33;;
62903;SDS011;49000;50.698;13.322;2022-11-22T05:15:53;15.67;;;7.60;;
62903;SDS011;49000;50.698;13.322;2022-11-22T05:18:20;13.93;;;7.17;;
62903;SDS011;49000;50.698;13.322;2022-11-22T05:20:46;14.97;;;8.10;;
62903;SDS011;49000;50.698;13.322;2022-11-22T05:23:12;17.00;;;7.90;;
62903;SDS011;49000;50.698;13.322;2022-11-22T05:25:57;13.97;;;6.90;;
62903;SDS011;49000;50.698;13.322;2022-11-22T05:28:22;13.97;;;7.27;;
62903;SDS011;49000;50.698;13.322;2022-11-22T05:30:51;11.37;;;7.07;;
62903;SDS011;49000;50.698;13.322;2022-11-22T05:33:16;14.70;;;7.70;;
62903;SDS011;49000;50.698;13.322;2022-11-22T05:35:42;15.73;;;7.73;;
62903;SDS011;49000;50.698;13.322;2022-11-22T05:38:07;13.27;;;7.63;;
62903;SDS011;49000;50.698;13.322;2022-11-22T05:40:33;16.57;;;7.90;;
62903;SDS011;49000;50.698;13.322;2022-11-22T05:42:58;14.30;;;7.53;;
62903;SDS011;49000;50.698;13.322;2022-11-22T05:45:24;18.30;;;9.37;;
62903;SDS011;49000;50.698;13.322;2022-11-22T05:47:49;15.03;;;8.73;;
62903;SDS011;49000;50.698;13.322;2022-11-22T05:50:15;17.30;;;9.33;;
62903;SDS011;49000;50.698;13.322;2022-11-22T05:52:41;18.83;;;9.37;;
62903;SDS011;49000;50.698;13.322;2022-11-22T05:55:06;15.30;;;8.57;;
62903;SDS011;49000;50.698;13.322;2022-11-22T05:57:32;14.47;;;8.30;;
62903;SDS011;49000;50.698;13.322;2022-11-22T05:59:57;21.10;;;9.60;;
62903;SDS011;49000;50.698;13.322;2022-11-22T06:02:23;16.50;;;9.47;;
62903;SDS011;49000;50.698;13.322;2022-11-22T06:04:49;16.70;;;8.63;;
62903;SDS011;49000;50.698;13.322;2022-11-22T06:07:15;21.73;;;10.80;;
62903;SDS011;49000;50.698;13.322;2022-11-22T06:09:40;17.90;;;10.30;;
62903;SDS011;49000;50.698;13.322;2022-11-22T06:12:06;20.60;;;10.53;;
62903;SDS011;49000;50.698;13.322;2022-11-22T06:14:32;22.03;;;11.50;;
62903;SDS011;49000;50.698;13.322;2022-11-22T06:16:57;20.33;;;10.53;;
62903;SDS011;49000;50.698;13.322;2022-11-22T06:19:23;23.13;;;12.10;;
62903;SDS011;49000;50.698;13.322;2022-11-22T06:21:48;22.17;;;11.60;;
62903;SDS011;49000;50.698;13.322;2022-11-22T06:24:14;39.83;;;20.97;;
62903;SDS011;49000;50.698;13.322;2022-11-22T06:26:39;31.10;;;14.87;;
62903;SDS011;49000;50.698;13.322;2022-11-22T06:29:05;33.83;;;15.53;;
62903;SDS011;49000;50.698;13.322;2022-11-22T06:31:30;56.33;;;25.47;;
62903;SDS011;49000;50.698;13.322;2022-11-22T06:33:57;33.30;;;15.57;;
62903;SDS011;49000;50.698;13.322;2022-11-22T06:36:24;40.30;;;19.33;;
62903;SDS011;49000;50.698;13.322;2022-11-22T06:38:54;51.43;;;24.23;;
62903;SDS011;49000;50.698;13.322;2022-11-22T06:41:21;29.13;;;14.97;;
62903;SDS011;49000;50.698;13.322;2022-11-22T06:43:49;28.03;;;14.10;;
62903;SDS011;49000;50.698;13.322;2022-11-22T06:46:16;27.27;;;13.73;;
62903;SDS011;49000;50.698;13.322;2022-11-22T06:48:42;40.30;;;19.03;;
62903;SDS011;49000;50.698;13.322;2022-11-22T06:51:19;25.93;;;14.00;;
62903;SDS011;49000;50.698;13.322;2022-11-22T06:53:52;24.00;;;12.80;;
62903;SDS011;49000;50.698;13.322;2022-11-22T06:58:48;22.23;;;12.90;;
62903;SDS011;49000;50.698;13.322;2022-11-22T07:01:15;28.70;;;15.63;;
62903;SDS011;49000;50.698;13.322;2022-11-22T07:03:42;25.00;;;13.50;;
62903;SDS011;49000;50.698;13.322;2022-11-22T07:06:09;24.23;;;12.27;;
62903;SDS011;49000;50.698;13.322;2022-11-22T07:08:35;25.03;;;12.60;;
62903;SDS011;49000;50.698;13.322;2022-11-22T07:11:02;23.37;;;12.50;;
62903;SDS011;49000;50.698;13.322;2022-11-22T07:13:29;23.10;;;11.93;;
62903;SDS011;49000;50.698;13.322;2022-11-22T07:15:56;25.87;;;11.53;;
62903;SDS011;49000;50.698;13.322;2022-11-22T07:18:23;22.83;;;11.87;;
62903;SDS011;49000;50.698;13.322;2022-11-22T07:20:49;25.63;;;12.67;;
62903;SDS011;49000;50.698;13.322;2022-11-22T07:23:15;21.03;;;11.83;;
62903;SDS011;49000;50.698;13.322;2022-11-22T07:25:44;22.30;;;12.13;;
62903;SDS011;49000;50.698;13.322;2022-11-22T07:28:11;23.77;;;12.57;;
62903;SDS011;49000;50.698;13.322;2022-11-22T07:30:38;28.07;;;13.63;;
62903;SDS011;49000;50.698;13.322;2022-11-22T07:33:04;26.00;;;12.73;;
62903;SDS011;49000;50.698;13.322;2022-11-22T07:35:30;28.50;;;13.00;;
62903;SDS011;49000;50.698;13.322;2022-11-22T07:37:55;28.07;;;13.03;;
62903;SDS011;49000;50.698;13.322;2022-11-22T07:40:21;36.20;;;15.30;;
62903;SDS011;49000;50.698;13.322;2022-11-22T07:42:46;29.27;;;14.37;;
62903;SDS011;49000;50.698;13.322;2022-11-22T07:45:12;28.47;;;12.67;;
62903;SDS011;49000;50.698;13.322;2022-11-22T07:47:37;27.47;;;12.80;;
62903;SDS011;49000;50.698;13.322;2022-11-22T07:50:03;33.43;;;15.13;;
62903;SDS011;49000;50.698;13.322;2022-11-22T07:52:29;31.93;;;15.20;;
62903;SDS011;49000;50.698;13.322;2022-11-22T07:54:54;25.30;;;13.20;;
62903;SDS011;49000;50.698;13.322;2022-11-22T07:57:20;29.70;;;14.47;;
62903;SDS011;49000;50.698;13.322;2022-11-22T07:59:45;34.60;;;15.93;;
62903;SDS011;49000;50.698;13.322;2022-11-22T08:02:11;42.73;;;17.10;;
62903;SDS011;49000;50.698;13.322;2022-11-22T08:04:36;43.83;;;15.70;;
62903;SDS011;49000;50.698;13.322;2022-11-22T08:07:02;44.10;;;15.50;;
62903;SDS011;49000;50.698;13.322;2022-11-22T08:09:27;50.23;;;16.83;;
62903;SDS011;49000;50.698;13.322;2022-11-22T08:11:53;48.07;;;16.07;;
62903;SDS011;49000;50.698;13.322;2022-11-22T08:14:19;35.97;;;15.10;;
62903;SDS011;49000;50.698;13.322;2022-11-22T08:16:44;30.43;;;14.47;;
62903;SDS011;49000;50.698;13.322;2022-11-22T08:19:10;32.97;;;15.60;;
62903;SDS011;49000;50.698;13.322;2022-11-22T08:21:39;35.33;;;15.00;;
62903;SDS011;49000;50.698;13.322;2022-11-22T08:24:05;45.50;;;16.43;;
62903;SDS011;49000;50.698;13.322;2022-11-22T08:26:31;32.97;;;15.77;;
62903;SDS011;49000;50.698;13.322;2022-11-22T08:28:58;39.10;;;15.93;;
62903;SDS011;49000;50.698;13.322;2022-11-22T08:31:24;42.57;;;15.43;;
62903;SDS011;49000;50.698;13.322;2022-11-22T08:33:54;32.83;;;15.30;;
62903;SDS011;49000;50.698;13.322;2022-11-22T08:36:19;36.80;;;15.90;;
62903;SDS011;49000;50.698;13.322;2022-11-22T08:38:45;69.30;;;25.50;;
62903;SDS011;49000;50.698;13.322;2022-11-22T08:41:11;43.73;;;19.70;;
62903;SDS011;49000;50.698;13.322;2022-11-22T08:43:36;63.00;;;22.60;;
62903;SDS011;49000;50.698;13.322;2022-11-22T08:46:02;39.93;;;16.67;;
62903;SDS011;49000;50.698;13.322;2022-11-22T08:48:28;34.40;;;16.80;;
62903;SDS011;49000;50.698;13.322;2022-11-22T08:51:00;43.13;;;18.13;;
62903;SDS011;49000;50.698;13.322;2022-11-22T08:53:27;40.90;;;18.07;;
62903;SDS011;49000;50.698;13.322;2022-11-22T08:55:55;56.50;;;16.50;;
62903;SDS011;49000;50.698;13.322;2022-11-22T08:58:23;41.90;;;17.97;;
62903;SDS011;49000;50.698;13.322;2022-11-22T09:00:48;32.60;;;15.47;;
62903;SDS011;49000;50.698;13.322;2022-11-22T09:03:14;35.10;;;16.30;;
62903;SDS011;49000;50.698;13.322;2022-11-22T09:05:39;34.63;;;17.53;;
62903;SDS011;49000;50.698;13.322;2022-11-22T09:08:05;38.50;;;17.33;;
62903;SDS011;49000;50.698;13.322;2022-11-22T09:10:30;40.50;;;17.33;;
62903;SDS011;49000;50.698;13.322;2022-11-22T09:12:56;34.33;;;16.73;;
62903;SDS011;49000;50.698;13.322;2022-11-22T09:15:21;41.50;;;17.80;;
62903;SDS011;49000;50.698;13.322;2022-11-22T09:17:47;40.57;;;18.10;;
62903;SDS011;49000;50.698;13.322;2022-11-22T09:20:12;38.10;;;17.10;;
62903;SDS011;49000;50.698;13.322;2022-11-22T09:22:38;29.90;;;16.07;;
62903;SDS011;49000;50.698;13.322;2022-11-22T09:25:04;33.17;;;16.43;;
62903;SDS011;49000;50.698;13.322;2022-11-22T09:27:31;33.03;;;18.30;;
62903;SDS011;49000;50.698;13.322;2022-11-22T09:29:57;33.83;;;17.00;;
62903;SDS011;49000;50.698;13.322;2022-11-22T09:32:23;35.60;;;17.37;;
62903;SDS011;49000;50.698;13.322;2022-11-22T09:34:48;35.77;;;18.03;;
62903;SDS011;49000;50.698;13.322;2022-11-22T09:37:14;35.90;;;19.20;;
62903;SDS011;49000;50.698;13.322;2022-11-22T09:39:42;30.10;;;17.40;;
62903;SDS011;49000;50.698;13.322;2022-11-22T09:42:29;32.00;;;18.07;;
62903;SDS011;49000;50.698;13.322;2022-11-22T09:48:08;40.73;;;17.37;;
62903;SDS011;49000;50.698;13.322;2022-11-22T09:50:57;30.70;;;16.80;;
62903;SDS011;49000;50.698;13.322;2022-11-22T09:53:31;28.57;;;15.80;;
62903;SDS011;49000;50.698;13.322;2022-11-22T09:56:17;37.83;;;17.47;;
62903;SDS011;49000;50.698;13.322;2022-11-22T09:58:49;31.47;;;15.67;;
62903;SDS011;49000;50.698;13.322;2022-11-22T10:06:36;26.80;;;14.03;;
62903;SDS011;49000;50.698;13.322;2022-11-22T10:12:10;26.40;;;13.07;;
62903;SDS011;49000;50.698;13.322;2022-11-22T10:14:44;26.27;;;13.40;;
62903;SDS011;49000;50.698;13.322;2022-11-22T10:20:00;23.63;;;12.37;;
62903;SDS011;49000;50.698;13.322;2022-11-22T10:22:35;19.27;;;10.80;;
62903;SDS011;49000;50.698;13.322;2022-11-22T10:25:01;26.00;;;13.20;;
62903;SDS011;49000;50.698;13.322;2022-11-22T10:27:37;21.87;;;11.57;;
62903;SDS011;49000;50.698;13.322;2022-11-22T10:30:05;21.93;;;12.27;;
62903;SDS011;49000;50.698;13.322;2022-11-22T10:32:59;22.23;;;11.60;;
62903;SDS011;49000;50.698;13.322;2022-11-22T10:36:03;21.67;;;11.40;;
62903;SDS011;49000;50.698;13.322;2022-11-22T10:41:07;21.63;;;12.13;;
62903;SDS011;49000;50.698;13.322;2022-11-22T10:44:02;17.87;;;10.93;;
62903;SDS011;49000;50.698;13.322;2022-11-22T10:49:29;16.63;;;10.23;;
62903;SDS011;49000;50.698;13.322;2022-11-22T10:52:03;19.70;;;10.87;;
62903;SDS011;49000;50.698;13.322;2022-11-22T11:00:31;15.53;;;9.30;;
62903;SDS011;49000;50.698;13.322;2022-11-22T11:03:19;18.50;;;10.43;;
62903;SDS011;49000;50.698;13.322;2022-11-22T11:05:53;16.77;;;10.03;;
62903;SDS011;49000;50.698;13.322;2022-11-22T11:08:37;16.07;;;8.77;;
62903;SDS011;49000;50.698;13.322;2022-11-22T11:11:06;19.10;;;9.37;;
62903;SDS011;49000;50.698;13.322;2022-11-22T11:13:38;16.30;;;9.70;;
62903;SDS011;49000;50.698;13.322;2022-11-22T11:16:12;15.57;;;8.80;;
62903;SDS011;49000;50.698;13.322;2022-11-22T11:21:36;18.13;;;9.53;;
62903;SDS011;49000;50.698;13.322;2022-11-22T11:24:02;17.00;;;9.10;;
62903;SDS011;49000;50.698;13.322;2022-11-22T11:26:31;15.83;;;8.67;;
62903;SDS011;49000;50.698;13.322;2022-11-22T11:31:44;13.17;;;7.63;;
62903;SDS011;49000;50.698;13.322;2022-11-22T11:34:15;10.93;;;7.27;;
62903;SDS011;49000;50.698;13.322;2022-11-22T11:36:48;13.17;;;7.80;;
62903;SDS011;49000;50.698;13.322;2022-11-22T11:39:21;12.37;;;7.33;;
62903;SDS011;49000;50.698;13.322;2022-11-22T11:41:57;13.07;;;7.43;;
62903;SDS011;49000;50.698;13.322;2022-11-22T11:46:53;12.50;;;7.20;;
62903;SDS011;49000;50.698;13.322;2022-11-22T11:49:25;13.30;;;7.07;;
62903;SDS011;49000;50.698;13.322;2022-11-22T11:51:53;11.30;;;7.03;;
62903;SDS011;49000;50.698;13.322;2022-11-22T11:54:25;13.67;;;7.80;;
62903;SDS011;49000;50.698;13.322;2022-11-22T11:57:01;10.03;;;7.10;;
62903;SDS011;49000;50.698;13.322;2022-11-22T12:10:00;9.53;;;6.17;;
62903;SDS011;49000;50.698;13.322;2022-11-22T12:15:25;9.60;;;6.17;;
62903;SDS011;49000;50.698;13.322;2022-11-22T12:21:22;9.43;;;5.77;;
62903;SDS011;49000;50.698;13.322;2022-11-22T12:24:00;11.50;;;6.40;;
62903;SDS011;49000;50.698;13.322;2022-11-22T12:26:29;9.20;;;5.47;;
62903;SDS011;49000;50.698;13.322;2022-11-22T12:28:55;10.50;;;5.57;;
62903;SDS011;49000;50.698;13.322;2022-11-22T12:31:27;10.63;;;6.80;;
62903;SDS011;49000;50.698;13.322;2022-11-22T12:34:00;9.37;;;5.63;;
62903;SDS011;49000;50.698;13.322;2022-11-22T12:36:41;8.03;;;5.17;;
62903;SDS011;49000;50.698;13.322;2022-11-22T12:39:17;10.13;;;6.30;;
62903;SDS011;49000;50.698;13.322;2022-11-22T12:41:47;8.87;;;5.60;;
62903;SDS011;49000;50.698;13.322;2022-11-22T12:44:17;9.83;;;6.03;;
62903;SDS011;49000;50.698;13.322;2022-11-22T12:46:46;9.07;;;5.80;;
62903;SDS011;49000;50.698;13.322;2022-11-22T12:49:18;8.93;;;6.13;;
62903;SDS011;49000;50.698;13.322;2022-11-22T13:00:20;9.67;;;5.93;;
62903;SDS011;49000;50.698;13.322;2022-11-22T13:05:21;10.50;;;6.40;;
62903;SDS011;49000;50.698;13.322;2022-11-22T13:07:58;10.23;;;6.20;;
62903;SDS011;49000;50.698;13.322;2022-11-22T13:13:27;9.80;;;5.77;;
62903;SDS011;49000;50.698;13.322;2022-11-22T13:16:02;7.63;;;5.37;;
62903;SDS011;49000;50.698;13.322;2022-11-22T13:18:33;10.07;;;6.07;;
62903;SDS011;49000;50.698;13.322;2022-11-22T13:29:26;9.10;;;5.20;;
62903;SDS011;49000;50.698;13.322;2022-11-22T13:31:59;8.93;;;5.40;;
62903;SDS011;49000;50.698;13.322;2022-11-22T13:34:29;7.93;;;5.57;;
62903;SDS011;49000;50.698;13.322;2022-11-22T13:36:58;9.87;;;5.60;;
62903;SDS011;49000;50.698;13.322;2022-11-22T13:39:40;8.23;;;5.70;;
62903;SDS011;49000;50.698;13.322;2022-11-22T13:42:13;8.07;;;4.90;;
62903;SDS011;49000;50.698;13.322;2022-11-22T13:47:37;10.37;;;6.03;;
62903;SDS011;49000;50.698;13.322;2022-11-22T13:50:37;8.83;;;5.50;;
62903;SDS011;49000;50.698;13.322;2022-11-22T13:53:23;10.40;;;5.43;;
62903;SDS011;49000;50.698;13.322;2022-11-22T13:55:50;10.00;;;5.97;;
62903;SDS011;49000;50.698;13.322;2022-11-22T14:00:47;10.33;;;6.33;;
62903;SDS011;49000;50.698;13.322;2022-11-22T14:03:26;9.53;;;6.33;;
62903;SDS011;49000;50.698;13.322;2022-11-22T14:05:56;8.70;;;6.03;;
62903;SDS011;49000;50.698;13.322;2022-11-22T14:19:21;9.33;;;6.03;;
62903;SDS011;49000;50.698;13.322;2022-11-22T14:24:51;10.33;;;6.40;;
62903;SDS011;49000;50.698;13.322;2022-11-22T14:30:13;10.03;;;6.20;;
62903;SDS011;49000;50.698;13.322;2022-11-22T14:32:51;13.60;;;7.47;;
62903;SDS011;49000;50.698;13.322;2022-11-22T14:35:38;11.43;;;6.90;;
62903;SDS011;49000;50.698;13.322;2022-11-22T14:38:30;10.20;;;6.00;;
62903;SDS011;49000;50.698;13.322;2022-11-22T14:46:35;11.10;;;6.43;;
62903;SDS011;49000;50.698;13.322;2022-11-22T14:52:19;10.90;;;6.37;;
62903;SDS011;49000;50.698;13.322;2022-11-22T14:54:55;10.57;;;6.70;;
62903;SDS011;49000;50.698;13.322;2022-11-22T14:57:26;10.53;;;6.37;;
62903;SDS011;49000;50.698;13.322;2022-11-22T15:00:18;14.07;;;7.40;;
62903;SDS011;49000;50.698;13.322;2022-11-22T15:03:01;10.77;;;6.10;;
62903;SDS011;49000;50.698;13.322;2022-11-22T15:11:19;13.77;;;8.82;;
62903;SDS011;49000;50.698;13.322;2022-11-22T15:14:09;12.57;;;8.13;;
62903;SDS011;49000;50.698;13.322;2022-11-22T15:16:49;11.37;;;7.03;;
62903;SDS011;49000;50.698;13.322;2022-11-22T15:19:31;13.57;;;7.63;;
62903;SDS011;49000;50.698;13.322;2022-11-22T15:22:10;12.47;;;7.20;;
62903;SDS011;49000;50.698;13.322;2022-11-22T15:24:37;13.77;;;7.63;;
62903;SDS011;49000;50.698;13.322;2022-11-22T15:32:52;13.63;;;8.27;;
62903;SDS011;49000;50.698;13.322;2022-11-22T15:35:35;13.40;;;7.50;;
62903;SDS011;49000;50.698;13.322;2022-11-22T15:38:09;13.50;;;7.57;;
62903;SDS011;49000;50.698;13.322;2022-11-22T15:40:38;13.60;;;7.47;;
62903;SDS011;49000;50.698;13.322;2022-11-22T15:43:09;10.90;;;6.27;;
62903;SDS011;49000;50.698;13.322;2022-11-22T15:45:40;12.47;;;7.10;;
62903;SDS011;49000;50.698;13.322;2022-11-22T15:48:09;12.27;;;7.13;;
62903;SDS011;49000;50.698;13.322;2022-11-22T15:50:38;12.87;;;7.23;;
62903;SDS011;49000;50.698;13.322;2022-11-22T15:53:20;11.63;;;6.67;;
62903;SDS011;49000;50.698;13.322;2022-11-22T15:56:35;12.83;;;7.37;;
62903;SDS011;49000;50.698;13.322;2022-11-22T15:58:45;10.23;;;6.77;;
62903;SDS011;49000;50.698;13.322;2022-11-22T16:01:16;11.63;;;6.63;;
62903;SDS011;49000;50.698;13.322;2022-11-22T16:03:43;11.77;;;6.37;;
62903;SDS011;49000;50.698;13.322;2022-11-22T16:06:15;10.00;;;6.20;;
62903;SDS011;49000;50.698;13.322;2022-11-22T16:08:49;12.50;;;6.53;;
62903;SDS011;49000;50.698;13.322;2022-11-22T16:11:26;14.03;;;7.13;;
62903;SDS011;49000;50.698;13.322;2022-11-22T16:14:02;10.47;;;6.50;;
62903;SDS011;49000;50.698;13.322;2022-11-22T16:16:29;11.03;;;6.70;;
62903;SDS011;49000;50.698;13.322;2022-11-22T16:21:57;13.00;;;7.47;;
62903;SDS011;49000;50.698;13.322;2022-11-22T16:24:30;12.87;;;7.43;;
62903;SDS011;49000;50.698;13.322;2022-11-22T16:29:24;12.03;;;6.90;;
62903;SDS011;49000;50.698;13.322;2022-11-22T16:32:07;14.70;;;8.03;;
62903;SDS011;49000;50.698;13.322;2022-11-22T16:34:35;12.27;;;6.93;;
62903;SDS011;49000;50.698;13.322;2022-11-22T16:37:01;13.70;;;7.87;;
62903;SDS011;49000;50.698;13.322;2022-11-22T16:39:47;12.83;;;7.30;;
62903;SDS011;49000;50.698;13.322;2022-11-22T16:42:12;11.47;;;6.73;;
62903;SDS011;49000;50.698;13.322;2022-11-22T16:44:38;13.40;;;7.73;;